createdAt,value
2022-09-18T00:01:39.184Z,98754.31
2022-09-18T00:07:41.911Z,98753.91
2022-09-18T00:13:43.894Z,98759.06
2022-09-18T00:19:47.974Z,98764.44
2022-09-18T00:25:49.838Z,98761.53
2022-09-18T00:31:55.128Z,98757.81
2022-09-18T00:37:57.792Z,98760.69
2022-09-18T00:44:24.725Z,98779.03
2022-09-18T00:50:27.861Z,98770.78
2022-09-18T00:56:34.596Z,98786.25
2022-09-18T01:02:36.486Z,98779.66
2022-09-18T01:08:50.209Z,98791.59
2022-09-18T01:15:02.346Z,98801.88
2022-09-18T01:21:16.472Z,98796.94
2022-09-18T01:27:39.563Z,98818.78
2022-09-18T01:34:09.497Z,98805.59
2022-09-18T01:40:27.252Z,98818.38
2022-09-18T01:46:39.536Z,98803.94
2022-09-18T01:53:07.937Z,98803.53
2022-09-18T01:59:17.041Z,98808.66
2022-09-18T02:05:39.917Z,98801.44
2022-09-18T02:11:51.124Z,98803.72
2022-09-18T02:18:05.692Z,98796.69
2022-09-18T02:24:11.916Z,98798.16
2022-09-18T02:30:14.178Z,98789.47
2022-09-18T02:36:37.847Z,98791.13
2022-09-18T02:43:04.732Z,98795.03
2022-09-18T02:49:20.291Z,98794.00
2022-09-18T02:55:46.612Z,98806.19
2022-09-18T03:01:54.753Z,98793.84
2022-09-18T03:07:56.802Z,98788.31
2022-09-18T03:13:58.776Z,98791.41
2022-09-18T03:20:00.636Z,98782.13
2022-09-18T03:26:02.513Z,98785.41
2022-09-18T03:32:04.823Z,98777.38
2022-09-18T03:38:06.919Z,98790.97
2022-09-18T03:44:08.824Z,98792.84
2022-09-18T03:50:11.250Z,98784.38
2022-09-18T03:56:14.962Z,98785.00
2022-09-18T04:02:19.840Z,98781.91
2022-09-18T04:08:21.985Z,98798.81
2022-09-18T04:14:28.005Z,98800.06
2022-09-18T04:20:31.912Z,98797.56
2022-09-18T04:26:37.524Z,98808.69
2022-09-18T04:32:39.397Z,98812.41
2022-09-18T04:38:41.277Z,98789.13
2022-09-18T04:44:43.166Z,98790.56
2022-09-18T04:50:46.858Z,98789.09
2022-09-18T04:56:48.893Z,98789.50
2022-09-18T05:02:50.790Z,98801.25
2022-09-18T05:08:52.690Z,98794.47
2022-09-18T05:14:54.683Z,98796.53
2022-09-18T05:20:56.662Z,98802.09
2022-09-18T05:26:58.567Z,98799.63
2022-09-18T05:33:07.185Z,98793.81
2022-09-18T05:39:09.088Z,98800.78
2022-09-18T05:45:11.266Z,98806.56
2022-09-18T05:51:13.152Z,98809.63
2022-09-18T05:57:15.038Z,98799.69
2022-09-18T06:03:17.447Z,98803.38
2022-09-18T06:09:19.319Z,98805.69
2022-09-18T06:15:21.265Z,98801.47
2022-09-18T06:21:23.209Z,98790.34
2022-09-18T06:27:25.191Z,98793.22
2022-09-18T06:33:29.410Z,98793.59
2022-09-18T06:39:31.338Z,98795.16
2022-09-18T06:45:33.246Z,98804.25
2022-09-18T06:51:35.206Z,98795.91
2022-09-18T06:57:37.104Z,98793.56
2022-09-18T07:03:39.010Z,98800.13
2022-09-18T07:09:40.934Z,98797.47
2022-09-18T07:15:45.750Z,98795.94
2022-09-18T07:21:47.710Z,98794.16
2022-09-18T07:27:50.818Z,98802.97
2022-09-18T07:33:54.067Z,98795.50
2022-09-18T07:39:55.994Z,98787.63
2022-09-18T07:45:58.052Z,98795.00
2022-09-18T07:52:09.326Z,98803.06
2022-09-18T07:58:11.389Z,98801.22
2022-09-18T08:04:13.499Z,98793.84
2022-09-18T08:10:21.517Z,98796.94
2022-09-18T08:16:24.909Z,98795.53
2022-09-18T08:22:37.614Z,98788.88
2022-09-18T08:28:39.576Z,98787.38
2022-09-18T08:34:44.496Z,98798.56
2022-09-18T08:41:14.966Z,98798.56
2022-09-18T08:47:33.095Z,98790.88
2022-09-18T08:53:47.414Z,98777.59
2022-09-18T09:00:01.661Z,98772.22
2022-09-18T09:06:57.064Z,98777.81
2022-09-18T09:13:52.198Z,98765.66
2022-09-18T09:20:14.659Z,98772.66
2022-09-18T09:34:29.789Z,98764.97
2022-09-18T09:40:41.716Z,98759.91
2022-09-18T09:47:01.673Z,98754.28
2022-09-18T09:53:09.367Z,98761.00
2022-09-18T10:00:07.885Z,98761.69
2022-09-18T10:13:01.652Z,98756.22
2022-09-18T10:19:04.737Z,98770.47
2022-09-18T10:25:21.701Z,98770.78
2022-09-18T10:31:23.695Z,98774.91
2022-09-18T10:37:28.589Z,98763.91
2022-09-18T10:43:33.712Z,98762.25
2022-09-18T10:49:36.777Z,98767.19
2022-09-18T10:55:55.153Z,98760.53
2022-09-18T11:02:05.251Z,98765.88
2022-09-18T11:08:17.828Z,98764.31
2022-09-18T11:14:30.663Z,98760.94
2022-09-18T11:27:23.230Z,98765.91
2022-09-18T11:33:29.631Z,98750.28
2022-09-18T11:39:43.045Z,98751.59
2022-09-18T11:45:57.193Z,98749.16
2022-09-18T11:52:43.259Z,98754.28
2022-09-18T11:59:09.923Z,98739.19
2022-09-18T12:06:18.871Z,98748.50
2022-09-18T12:12:38.699Z,98738.69
2022-09-18T12:19:05.113Z,98734.72
2022-09-18T12:25:17.848Z,98748.28
2022-09-18T12:31:56.870Z,98738.84
2022-09-18T12:38:16.752Z,98750.94
2022-09-18T12:44:44.076Z,98753.53
2022-09-18T12:51:03.948Z,98747.91
2022-09-18T12:57:27.127Z,98739.31
2022-09-18T13:03:36.200Z,98739.38
2022-09-18T13:09:56.080Z,98724.63
2022-09-18T13:16:17.343Z,98691.09
2022-09-18T13:22:21.079Z,98702.22
2022-09-18T13:28:25.842Z,98693.19
2022-09-18T13:34:28.574Z,98665.91
2022-09-18T13:40:49.972Z,98659.88
2022-09-18T13:46:57.613Z,98673.31
2022-09-18T13:53:01.367Z,98674.09
2022-09-18T13:59:04.368Z,98664.56
2022-09-18T14:05:44.156Z,98657.09
2022-09-18T14:11:51.621Z,98660.19
2022-09-18T14:18:16.690Z,98662.97
2022-09-18T14:24:40.287Z,98657.38
2022-09-18T14:30:42.390Z,98654.53
2022-09-18T14:36:59.798Z,98640.50
2022-09-18T14:43:02.509Z,98655.88
2022-09-18T14:49:41.532Z,98660.44
2022-09-18T14:55:54.511Z,98656.84
2022-09-18T15:02:35.548Z,98665.84
2022-09-18T15:08:41.283Z,98651.63
2022-09-18T15:14:47.498Z,98660.78
2022-09-18T15:27:11.012Z,98664.00
2022-09-18T15:40:54.708Z,98652.19
2022-09-18T15:46:56.780Z,98687.69
2022-09-18T15:52:58.776Z,98704.34
2022-09-18T15:59:05.295Z,98697.78
2022-09-18T16:05:14.968Z,98691.41
2022-09-18T16:11:39.116Z,98687.09
2022-09-18T16:17:46.662Z,98671.94
2022-09-18T16:23:56.165Z,98687.19
2022-09-18T16:29:58.138Z,98668.66
2022-09-18T16:36:14.530Z,98672.34
2022-09-18T16:42:18.959Z,98656.16
2022-09-18T16:48:21.708Z,98640.28
2022-09-18T16:54:26.521Z,98648.94
2022-09-18T17:00:29.165Z,98636.59
2022-09-18T17:06:34.195Z,98626.97
2022-09-18T17:12:36.968Z,98613.59
2022-09-18T17:18:41.006Z,98618.03
2022-09-18T17:24:42.873Z,98629.53
2022-09-18T17:30:45.235Z,98641.16
2022-09-18T17:36:47.273Z,98655.97
2022-09-18T17:42:49.250Z,98644.03
2022-09-18T17:48:56.615Z,98640.53
2022-09-18T17:54:58.517Z,98637.00
2022-09-18T18:01:00.770Z,98639.50
2022-09-18T18:07:04.898Z,98641.13
2022-09-18T18:13:06.882Z,98635.00
2022-09-18T18:19:12.730Z,98621.19
2022-09-18T18:25:14.722Z,98628.81
2022-09-18T18:31:19.963Z,98642.16
2022-09-18T18:37:22.439Z,98630.38
2022-09-18T18:43:24.431Z,98630.78
2022-09-18T18:49:27.827Z,98627.69
2022-09-18T18:55:31.530Z,98621.91
2022-09-18T19:01:33.714Z,98608.53
2022-09-18T19:07:35.695Z,98619.19
2022-09-18T19:13:46.619Z,98620.56
2022-09-18T19:19:49.823Z,98628.59
2022-09-18T19:25:56.944Z,98615.38
2022-09-18T19:31:59.384Z,98620.31
2022-09-18T19:38:01.822Z,98616.44
2022-09-18T19:44:34.927Z,98619.28
2022-09-18T19:50:40.113Z,98627.47
2022-09-18T19:56:47.383Z,98621.97
2022-09-18T20:02:56.549Z,98636.22
2022-09-18T20:08:59.297Z,98640.09
2022-09-18T20:15:02.641Z,98634.25
2022-09-18T20:21:11.025Z,98649.72
2022-09-18T20:27:15.902Z,98624.63
2022-09-18T20:33:17.881Z,98631.44
2022-09-18T20:39:19.771Z,98630.00
2022-09-18T20:45:21.744Z,98630.44
2022-09-18T20:51:34.744Z,98618.28
2022-09-18T20:57:37.410Z,98614.78
2022-09-18T21:03:43.264Z,98617.06
2022-09-18T21:09:45.165Z,98621.72
2022-09-18T21:15:48.385Z,98628.75
2022-09-18T21:21:50.589Z,98637.06
2022-09-18T21:27:55.633Z,98622.88
2022-09-18T21:34:00.161Z,98625.09
2022-09-18T21:40:13.636Z,98630.50
2022-09-18T21:46:20.173Z,98634.59
2022-09-18T21:58:40.815Z,98647.59
2022-09-18T22:04:45.670Z,98639.78
2022-09-18T22:10:47.575Z,98628.91
2022-09-18T22:16:50.605Z,98643.88
2022-09-18T22:22:52.488Z,98642.28
2022-09-18T22:28:56.938Z,98635.97
2022-09-18T22:34:59.684Z,98641.72
2022-09-18T22:41:04.236Z,98650.59
2022-09-18T22:47:06.226Z,98645.88
2022-09-18T22:53:08.108Z,98650.59
2022-09-18T22:59:13.615Z,98650.59
2022-09-18T23:05:15.861Z,98666.84
2022-09-18T23:11:25.315Z,98663.16
2022-09-18T23:17:27.220Z,98674.88
2022-09-18T23:23:31.654Z,98681.22
2022-09-18T23:29:33.659Z,98680.41
2022-09-18T23:35:36.492Z,98699.56
2022-09-18T23:41:38.736Z,98707.16
2022-09-18T23:47:40.680Z,98705.28
2022-09-18T23:53:42.627Z,98715.34
2022-09-18T23:59:44.605Z,98717.16
